Hamaritha — PF2437 — position and weather

sailwx.info

Track history (hours):
 
Tides and Currents Weather Stations Pressure Air Temp Water Temp Dewpoint Dewpoint Depression Visibility Wind Speed Wind Dir Waves Ship Positions

Hamaritha

Last reported at 2017-Apr-22 10:13 UTC. Time now 2017-Apr-23 16:03 UTC.
Position N 52°52' E 005°41'.

Length 86 m.

Type: Ship. MMSI: 244700691.

Date/timePositionNaut miles runAvg speedWind from/ knotsBaromVisibWave heightAir tempDewpointWater temp
2017-Apr-22 10:13N 52°52' E 005°41'1 2.2
2017-Apr-22 09:54N 52°51' E 005°41'2 5.5
2017-Apr-22 09:30N 52°49' E 005°38'4 7.1
2017-Apr-22 09:00N 52°46' E 005°35'4 6.9
2017-Apr-22 08:30N 52°43' E 005°34'3 6.5
2017-Apr-22 08:00N 52°40' E 005°34'3 6.2
2017-Apr-22 07:30N 52°38' E 005°37'4 6.7
2017-Apr-22 06:58N 52°36' E 005°42'3 6.9
2017-Apr-22 06:30N 52°35' E 005°47'3 6.9
2017-Apr-22 06:00N 52°35' E 005°53'3 6.9
2017-Apr-22 05:30N 52°32' E 005°57'2 4.7
2017-Apr-22 05:00N 52°32' E 006°01'3 6.1
2017-Apr-22 04:30N 52°29' E 006°04'0 0.6
2017-Apr-22 04:00N 52°29' E 006°04'0 0.0
2017-Apr-22 03:30N 52°29' E 006°04'0 0.0
2017-Apr-22 03:00N 52°29' E 006°04'0 0.0
2017-Apr-22 02:30N 52°29' E 006°04'0 0.0
2017-Apr-22 02:00N 52°29' E 006°04'0 0.0
2017-Apr-22 01:30N 52°29' E 006°04'0 0.0
2017-Apr-22 01:00N 52°29' E 006°04'0 0.0
2017-Apr-22 00:30N 52°29' E 006°04'0 0.0
2017-Apr-22 00:00N 52°29' E 006°04'0 0.0
2017-Apr-21 23:30N 52°29' E 006°04'0 0.0
2017-Apr-21 23:00N 52°29' E 006°04'0 0.0
2017-Apr-21 22:30N 52°29' E 006°04'0 0.0
2017-Apr-21 22:00N 52°29' E 006°04'0 0.0
2017-Apr-21 21:30N 52°29' E 006°04'0 0.0
2017-Apr-21 21:00N 52°29' E 006°04'0 0.0
2017-Apr-21 20:30N 52°29' E 006°04'0 0.0
2017-Apr-21 20:00N 52°29' E 006°04'0 0.0
2017-Apr-21 19:30N 52°29' E 006°04'0 0.0
2017-Apr-21 19:00N 52°29' E 006°04'0 0.0
2017-Apr-21 18:30N 52°29' E 006°04'0 0.0
2017-Apr-21 18:00N 52°29' E 006°04'3 4.7
2017-Apr-21 17:27N 52°27' E 006°06'15 5.6
2017-Apr-21 14:44N 52°12' E 006°09'2 5.8
2017-Apr-21 14:25N 52°11' E 006°12'5 5.5
2017-Apr-21 13:30N 52°06' E 006°12'3 6.8
2017-Apr-21 13:00N 52°03' E 006°08'2 4.8
2017-Apr-21 12:30N 52°01' E 006°08'2 4.0
2017-Apr-21 12:00N 52°00' E 006°05'3 5.1
2017-Apr-21 11:30N 51°60' E 006°01'3 6.7
2017-Apr-21 11:01N 51°57' E 005°57'4 7.1
2017-Apr-21 10:30N 51°54' E 006°00'4 7.5
2017-Apr-21 10:00N 51°52' E 006°05'4 8.2
2017-Apr-21 09:30N 51°50' E 006°11'4 8.3
2017-Apr-21 09:00N 51°49' E 006°17'4 8.3
2017-Apr-21 08:29N 51°45' E 006°22'4 6.2
2017-Apr-21 07:51N 51°43' E 006°26'4 7.8
2017-Apr-21 07:17N 51°40' E 006°32'3 8.6
2017-Apr-21 06:59N 51°39' E 006°36'5 5.9
2017-Apr-21 06:07N 51°35' E 006°39'1 8.7
2017-Apr-21 06:00N 51°35' E 006°41'4 7.6
2017-Apr-21 05:30N 51°31' E 006°43'3 5.6
2017-Apr-21 05:00N 51°28' E 006°42'2 3.5
2017-Apr-21 04:30N 51°27' E 006°44'0 0.0
2017-Apr-21 04:00N 51°27' E 006°44'0 0.0
2017-Apr-21 03:30N 51°27' E 006°44'0 0.0
2017-Apr-21 03:00N 51°27' E 006°44'0 0.0
2017-Apr-21 02:30N 51°27' E 006°44'0 0.0
2017-Apr-21 02:00N 51°27' E 006°44'0 0.0
2017-Apr-21 01:30N 51°27' E 006°44'0 0.0
2017-Apr-21 01:01N 51°27' E 006°44'0 0.0
2017-Apr-21 00:30N 51°27' E 006°44'0 0.0
2017-Apr-21 00:00N 51°27' E 006°44'0 0.0
2017-Apr-20 23:30N 51°27' E 006°44'0 0.0
2017-Apr-20 23:00N 51°27' E 006°44'0 0.0
2017-Apr-20 22:30N 51°27' E 006°44'0 0.0
2017-Apr-20 22:00N 51°27' E 006°44'0 0.0
2017-Apr-20 21:30N 51°27' E 006°44'0 0.0
2017-Apr-20 21:00N 51°27' E 006°44'1 1.5
2017-Apr-20 20:30N 51°27' E 006°43'4 7.6
2017-Apr-20 20:00N 51°23' E 006°44'3 6.1
2017-Apr-20 19:29N 51°21' E 006°39'8 7.0
2017-Apr-20 18:23N 51°14' E 006°46'2 5.5
2017-Apr-20 18:00N 51°13' E 006°43'4 7.0
2017-Apr-20 17:30N 51°11' E 006°48'14 6.5
2017-Apr-20 15:17N 50°59' E 006°60'3 8.2
2017-Apr-20 14:56N 50°56' E 006°58'4 7.9
2017-Apr-20 14:28N 50°54' E 007°03'7 6.4
2017-Apr-20 13:25N 50°47' E 007°02'4 8.7
2017-Apr-20 12:59N 50°44' E 007°07'  
Track history (hours):
 
Tides and Currents Weather Stations Pressure Air Temp Water Temp Dewpoint Dewpoint Depression Visibility Wind Speed Wind Dir Waves Ship Positions

Hamaritha

Last reported at 2017-Apr-22 10:13 UTC. Time now 2017-Apr-23 16:03 UTC.
Position N 52°52' E 005°41'.

Length 86 m.

Type: Ship. MMSI: 244700691.

Date/timePositionNaut miles runAvg speedWind from/ knotsBaromVisibWave heightAir tempDewpointWater temp
2017-Apr-22 10:13N 52°52' E 005°41'1 2.2
2017-Apr-22 09:54N 52°51' E 005°41'2 5.5
2017-Apr-22 09:30N 52°49' E 005°38'4 7.1
2017-Apr-22 09:00N 52°46' E 005°35'4 6.9
2017-Apr-22 08:30N 52°43' E 005°34'3 6.5
2017-Apr-22 08:00N 52°40' E 005°34'3 6.2
2017-Apr-22 07:30N 52°38' E 005°37'4 6.7
2017-Apr-22 06:58N 52°36' E 005°42'3 6.9
2017-Apr-22 06:30N 52°35' E 005°47'3 6.9
2017-Apr-22 06:00N 52°35' E 005°53'3 6.9
2017-Apr-22 05:30N 52°32' E 005°57'2 4.7
2017-Apr-22 05:00N 52°32' E 006°01'3 6.1
2017-Apr-22 04:30N 52°29' E 006°04'0 0.6
2017-Apr-22 04:00N 52°29' E 006°04'0 0.0
2017-Apr-22 03:30N 52°29' E 006°04'0 0.0
2017-Apr-22 03:00N 52°29' E 006°04'0 0.0
2017-Apr-22 02:30N 52°29' E 006°04'0 0.0
2017-Apr-22 02:00N 52°29' E 006°04'0 0.0
2017-Apr-22 01:30N 52°29' E 006°04'0 0.0
2017-Apr-22 01:00N 52°29' E 006°04'0 0.0
2017-Apr-22 00:30N 52°29' E 006°04'0 0.0
2017-Apr-22 00:00N 52°29' E 006°04'0 0.0
2017-Apr-21 23:30N 52°29' E 006°04'0 0.0
2017-Apr-21 23:00N 52°29' E 006°04'0 0.0
2017-Apr-21 22:30N 52°29' E 006°04'0 0.0
2017-Apr-21 22:00N 52°29' E 006°04'0 0.0
2017-Apr-21 21:30N 52°29' E 006°04'0 0.0
2017-Apr-21 21:00N 52°29' E 006°04'0 0.0
2017-Apr-21 20:30N 52°29' E 006°04'0 0.0
2017-Apr-21 20:00N 52°29' E 006°04'0 0.0
2017-Apr-21 19:30N 52°29' E 006°04'0 0.0
2017-Apr-21 19:00N 52°29' E 006°04'0 0.0
2017-Apr-21 18:30N 52°29' E 006°04'0 0.0
2017-Apr-21 18:00N 52°29' E 006°04'3 4.7
2017-Apr-21 17:27N 52°27' E 006°06'15 5.6
2017-Apr-21 14:44N 52°12' E 006°09'2 5.8
2017-Apr-21 14:25N 52°11' E 006°12'5 5.5
2017-Apr-21 13:30N 52°06' E 006°12'3 6.8
2017-Apr-21 13:00N 52°03' E 006°08'2 4.8
2017-Apr-21 12:30N 52°01' E 006°08'2 4.0
2017-Apr-21 12:00N 52°00' E 006°05'3 5.1
2017-Apr-21 11:30N 51°60' E 006°01'3 6.7
2017-Apr-21 11:01N 51°57' E 005°57'4 7.1
2017-Apr-21 10:30N 51°54' E 006°00'4 7.5
2017-Apr-21 10:00N 51°52' E 006°05'4 8.2
2017-Apr-21 09:30N 51°50' E 006°11'4 8.3
2017-Apr-21 09:00N 51°49' E 006°17'4 8.3
2017-Apr-21 08:29N 51°45' E 006°22'4 6.2
2017-Apr-21 07:51N 51°43' E 006°26'4 7.8
2017-Apr-21 07:17N 51°40' E 006°32'3 8.6
2017-Apr-21 06:59N 51°39' E 006°36'5 5.9
2017-Apr-21 06:07N 51°35' E 006°39'1 8.7
2017-Apr-21 06:00N 51°35' E 006°41'4 7.6
2017-Apr-21 05:30N 51°31' E 006°43'3 5.6
2017-Apr-21 05:00N 51°28' E 006°42'2 3.5
2017-Apr-21 04:30N 51°27' E 006°44'0 0.0
2017-Apr-21 04:00N 51°27' E 006°44'0 0.0
2017-Apr-21 03:30N 51°27' E 006°44'0 0.0
2017-Apr-21 03:00N 51°27' E 006°44'0 0.0
2017-Apr-21 02:30N 51°27' E 006°44'0 0.0
2017-Apr-21 02:00N 51°27' E 006°44'0 0.0
2017-Apr-21 01:30N 51°27' E 006°44'0 0.0
2017-Apr-21 01:01N 51°27' E 006°44'0 0.0
2017-Apr-21 00:30N 51°27' E 006°44'0 0.0
2017-Apr-21 00:00N 51°27' E 006°44'0 0.0
2017-Apr-20 23:30N 51°27' E 006°44'0 0.0
2017-Apr-20 23:00N 51°27' E 006°44'0 0.0
2017-Apr-20 22:30N 51°27' E 006°44'0 0.0
2017-Apr-20 22:00N 51°27' E 006°44'0 0.0
2017-Apr-20 21:30N 51°27' E 006°44'0 0.0
2017-Apr-20 21:00N 51°27' E 006°44'1 1.5
2017-Apr-20 20:30N 51°27' E 006°43'4 7.6
2017-Apr-20 20:00N 51°23' E 006°44'3 6.1
2017-Apr-20 19:29N 51°21' E 006°39'8 7.0
2017-Apr-20 18:23N 51°14' E 006°46'2 5.5
2017-Apr-20 18:00N 51°13' E 006°43'4 7.0
2017-Apr-20 17:30N 51°11' E 006°48'14 6.5
2017-Apr-20 15:17N 50°59' E 006°60'3 8.2
2017-Apr-20 14:56N 50°56' E 006°58'4 7.9
2017-Apr-20 14:28N 50°54' E 007°03'7 6.4
2017-Apr-20 13:25N 50°47' E 007°02'4 8.7
2017-Apr-20 12:59N 50°44' E 007°07'  

Dump ship's entire track history